| time (UTC) | temp F | wind direction | speed MPH | gust MPH | rain 1hr in | rain 24hr in | rain mn in | humidity % | barometer mb |
| 20260507093047 | 29 | 70 | 1.0 | 3.0 | 0.00 | 0.00 | 0.00 | 72 | 1014.4 |
| 20260507091546 | 30 | 65 | 0.0 | 0.0 | 0.00 | 0.00 | 0.00 | 71 | 1014.5 |
| 20260507090045 | 29 | 65 | 0.0 | 0.0 | 0.00 | 0.00 | 0.00 | 71 | 1014.4 |
| 20260507084541 | 30 | 78 | 0.0 | 0.0 | 0.00 | 0.00 | 0.00 | 70 | 1014.5 |
| 20260507083040 | 30 | 79 | 0.0 | 0.0 | 0.00 | 0.00 | 0.00 | 70 | 1014.4 |
| 20260507081545 | 31 | 79 | 0.0 | 0.0 | 0.00 | 0.00 | 0.00 | 69 | 1014.3 |
| 20260507080038 | 31 | 79 | 0.0 | 0.0 | 0.00 | 0.00 | 0.00 | 68 | 1014.3 |
| 20260507074535 | 32 | 79 | 0.0 | 0.0 | 0.00 | 0.00 | 0.00 | 68 | 1014.4 |
| 20260507073033 | 32 | 65 | 0.0 | 0.0 | 0.00 | 0.00 | 0.00 | 67 | 1014.4 |
| 20260507071535 | 32 | 80 | 0.0 | 0.0 | 0.00 | 0.00 | 0.00 | 66 | 1014.5 |
| 20260507070034 | 32 | 69 | 0.0 | 0.0 | 0.00 | 0.00 | 0.00 | 67 | 1014.5 |
| 20260507064537 | 32 | 69 | 0.0 | 0.0 | 0.00 | 0.00 | 0.00 | 66 | 1014.6 |
| 20260507063027 | 32 | 63 | 0.0 | 0.0 | 0.00 | 0.00 | 0.00 | 65 | 1014.6 |
| 20260507061532 | 33 | 59 | 0.0 | 0.0 | 0.00 | 0.00 | 0.00 | 65 | 1014.7 |
| 20260507060023 | 33 | 58 | 0.0 | 0.0 | 0.00 | 0.00 | 0.00 | 64 | 1014.8 |
| 20260507054521 | 34 | 58 | 0.0 | 0.0 | 0.00 | 0.00 | 0.00 | 63 | 1014.8 |
| 20260507053022 | 35 | 58 | 0.0 | 0.0 | 0.00 | 0.00 | 0.00 | 61 | 1014.8 |
| 20260507051517 | 35 | 80 | 0.0 | 0.0 | 0.00 | 0.00 | 0.00 | 60 | 1014.9 |
| 20260507050013 | 36 | 80 | 0.0 | 2.0 | 0.00 | 0.00 | 0.00 | 59 | 1015.1 |
| 20260507044513 | 36 | 59 | 1.0 | 4.0 | 0.00 | 0.00 | 0.00 | 58 | 1015.2 |
| 20260507043012 | 36 | 55 | 2.0 | 4.0 | 0.00 | 0.00 | 0.00 | 57 | 1015.2 |
| 20260507041510 | 37 | 86 | 1.0 | 3.0 | 0.00 | 0.00 | 0.00 | 56 | 1015.3 |
| 20260507040010 | 37 | 84 | 1.0 | 3.0 | 0.00 | 0.00 | 0.00 | 55 | 1015.3 |
| 20260507034511 | 38 | 65 | 2.0 | 5.0 | 0.00 | 0.00 | 0.00 | 54 | 1015.3 |
| 20260507033008 | 39 | 88 | 0.0 | 4.0 | 0.00 | 0.00 | 0.00 | 52 | 1015.5 |
| 20260507031508 | 40 | 71 | 1.0 | 3.0 | 0.00 | 0.00 | 0.00 | 52 | 1015.6 |
| 20260507030010 | 41 | 64 | 0.0 | 0.0 | 0.00 | 0.00 | 0.00 | 51 | 1015.5 |
| 20260507024507 | 42 | 64 | 0.0 | 0.0 | 0.00 | 0.00 | 0.00 | 48 | 1015.5 |
| 20260507023006 | 43 | 59 | 0.0 | 0.0 | 0.00 | 0.00 | 0.00 | 47 | 1015.5 |
| 20260507021506 | 45 | 79 | 0.0 | 2.0 | 0.00 | 0.00 | 0.00 | 44 | 1015.4 |
| 20260507020006 | 46 | 46 | 0.0 | 0.0 | 0.00 | 0.00 | 0.00 | 43 | 1015.3 |
| 20260507014504 | 47 | 28 | 0.0 | 3.0 | 0.00 | 0.00 | 0.00 | 42 | 1015.4 |
| 20260507013006 | 48 | 46 | 1.0 | 5.0 | 0.00 | 0.00 | 0.00 | 40 | 1015.5 |
| 20260507011504 | 49 | 19 | 2.0 | 8.0 | 0.00 | 0.00 | 0.00 | 38 | 1015.6 |
| 20260507010005 | 50 | 19 | 3.0 | 9.0 | 0.00 | 0.00 | 0.00 | 38 | 1015.6 |
| 20260507004502 | 51 | 360 | 5.0 | 10.0 | 0.00 | 0.00 | 0.00 | 35 | 1015.6 |
| 20260507003101 | 51 | 5 | 6.0 | 10.0 | 0.00 | 0.00 | 0.00 | 36 | 1015.7 |
| 20260507001612 | 50 | 342 | 6.0 | 10.0 | 0.00 | 0.00 | 0.00 | 36 | 1015.9 |
| 20260507000059 | 50 | 323 | 3.0 | 11.0 | 0.00 | 0.00 | 0.00 | 36 | 1015.9 |
| 20260506234605 | 51 | 324 | 5.0 | 14.0 | 0.00 | 0.00 | 0.00 | 37 | 1016.0 |
| 20260506233059 | 50 | 315 | 6.0 | 16.0 | 0.00 | 0.00 | 0.00 | 37 | 1016.2 |
| 20260506231556 | 51 | 5 | 4.0 | 13.0 | 0.00 | 0.00 | 0.00 | 37 | 1016.2 |
| 20260506230053 | 51 | 314 | 7.0 | 15.0 | 0.00 | 0.00 | 0.00 | 34 | 1016.4 |
| 20260506224606 | 52 | 345 | 5.0 | 13.0 | 0.00 | 0.00 | 0.00 | 34 | 1016.5 |
| 20260506223054 | 51 | 334 | 4.0 | 11.0 | 0.00 | 0.00 | 0.00 | 39 | 1016.6 |
| 20260506221547 | 51 | 315 | 6.0 | 14.0 | 0.00 | 0.00 | 0.00 | 37 | 1016.8 |
| 20260506220059 | 50 | 350 | 4.0 | 13.0 | 0.00 | 0.00 | 0.00 | 39 | 1016.8 |
| 20260506214544 | 50 | 324 | 9.0 | 15.0 | 0.00 | 0.00 | 0.00 | 38 | 1017.1 |
| 20260506213041 | 50 | 12 | 3.0 | 12.0 | 0.00 | 0.00 | 0.00 | 40 | 1017.2 |
| 20260506211548 | 50 | 304 | 4.0 | 13.0 | 0.00 | 0.00 | 0.00 | 40 | 1017.5 |
| 20260506210038 | 50 | 344 | 6.0 | 14.0 | 0.00 | 0.00 | 0.00 | 39 | 1017.7 |
| 20260506204538 | 50 | 329 | 4.0 | 13.0 | 0.00 | 0.00 | 0.00 | 42 | 1017.9 |
| 20260506203034 | 49 | 277 | 4.0 | 11.0 | 0.00 | 0.00 | 0.00 | 44 | 1018.0 |
| 20260506201533 | 50 | 340 | 10.0 | 17.0 | 0.00 | 0.00 | 0.00 | 42 | 1018.3 |
| 20260506200030 | 48 | 311 | 3.0 | 14.0 | 0.00 | 0.00 | 0.00 | 44 | 1018.5 |
| 20260506194534 | 48 | 316 | 3.0 | 14.0 | 0.00 | 0.00 | 0.00 | 44 | 1018.7 |
| 20260506193027 | 47 | 341 | 6.0 | 21.0 | 0.00 | 0.00 | 0.00 | 47 | 1018.9 |
| 20260506191526 | 47 | 32 | 4.0 | 13.0 | 0.00 | 0.00 | 0.00 | 44 | 1018.9 |
| 20260506190023 | 48 | 355 | 5.0 | 11.0 | 0.00 | 0.00 | 0.00 | 46 | 1019.2 |
| 20260506184519 | 46 | 315 | 2.0 | 12.0 | 0.00 | 0.00 | 0.00 | 50 | 1019.5 |
| 20260506183018 | 46 | 343 | 5.0 | 12.0 | 0.00 | 0.00 | 0.00 | 46 | 1019.8 |
| 20260506181513 | 46 | 350 | 5.0 | 14.0 | 0.00 | 0.00 | 0.00 | 48 | 1020.1 |
| 20260506180011 | 44 | 302 | 5.0 | 14.0 | 0.00 | 0.00 | 0.00 | 47 | 1020.4 |
| 20260506174510 | 43 | 334 | 5.0 | 14.0 | 0.00 | 0.00 | 0.00 | 48 | 1020.5 |
| 20260506173009 | 43 | 19 | 7.0 | 15.0 | 0.00 | 0.00 | 0.00 | 49 | 1020.7 |
| 20260506171507 | 43 | 355 | 4.0 | 14.0 | 0.00 | 0.00 | 0.00 | 50 | 1020.8 |
| 20260506170006 | 42 | 360 | 4.0 | 12.0 | 0.00 | 0.00 | 0.00 | 51 | 1020.9 |
| 20260506164503 | 41 | 298 | 2.0 | 13.0 | 0.00 | 0.00 | 0.00 | 52 | 1021.1 |
| 20260506163001 | 41 | 313 | 5.0 | 11.0 | 0.00 | 0.00 | 0.00 | 52 | 1021.2 |
| 20260506161602 | 41 | 322 | 1.0 | 5.0 | 0.00 | 0.00 | 0.00 | 54 | 1021.5 |
| 20260506160111 | 40 | 258 | 3.0 | 6.0 | 0.00 | 0.00 | 0.00 | 54 | 1021.5 |
| 20260506154559 | 40 | 333 | 2.0 | 10.0 | 0.00 | 0.00 | 0.00 | 52 | 1021.5 |
| 20260506153058 | 40 | 215 | 1.0 | 7.0 | 0.00 | 0.00 | 0.00 | 53 | 1021.5 |
| 20260506151557 | 40 | 291 | 2.0 | 7.0 | 0.00 | 0.00 | 0.00 | 53 | 1021.6 |
| 20260506150054 | 40 | 360 | 2.0 | 7.0 | 0.00 | 0.00 | 0.00 | 54 | 1021.6 |
| 20260506144552 | 39 | 277 | 5.0 | 10.0 | 0.00 | 0.00 | 0.00 | 55 | 1021.6 |
| 20260506143048 | 38 | 310 | 1.0 | 6.0 | 0.00 | 0.00 | 0.00 | 59 | 1021.7 |
| 20260506141545 | 37 | 263 | 1.0 | 4.0 | 0.00 | 0.00 | 0.00 | 60 | 1021.7 |
| 20260506140042 | 36 | 257 | 0.0 | 3.0 | 0.00 | 0.00 | 0.00 | 64 | 1021.7 |
| 20260506134537 | 35 | 253 | 2.0 | 4.0 | 0.00 | 0.00 | 0.00 | 67 | 1021.8 |
| 20260506133034 | 34 | 252 | 1.0 | 3.0 | 0.00 | 0.00 | 0.00 | 69 | 1021.9 |
| 20260506131543 | 32 | 254 | 1.0 | 4.0 | 0.00 | 0.00 | 0.00 | 69 | 1021.9 |
| 20260506130037 | 32 | 276 | 0.0 | 2.0 | 0.00 | 0.00 | 0.00 | 71 | 1021.9 |
| 20260506124526 | 31 | 342 | 0.0 | 0.0 | 0.00 | 0.00 | 0.00 | 72 | 1021.7 |
| 20260506123026 | 30 | 349 | 0.0 | 0.0 | 0.00 | 0.00 | 0.00 | 73 | 1021.6 |
| 20260506121524 | 30 | 349 | 0.0 | 3.0 | 0.00 | 0.00 | 0.00 | 73 | 1021.5 |
| 20260506120024 | 29 | 336 | 0.0 | 0.0 | 0.00 | 0.00 | 0.00 | 74 | 1021.3 |
| 20260506114523 | 29 | 347 | 0.0 | 0.0 | 0.00 | 0.00 | 0.00 | 73 | 1021.1 |
| 20260506113023 | 29 | 347 | 0.0 | 0.0 | 0.00 | 0.00 | 0.00 | 73 | 1021.1 |
| 20260506111519 | 29 | 347 | 0.0 | 0.0 | 0.00 | 0.00 | 0.00 | 73 | 1021.1 |
| 20260506110019 | 29 | 347 | 0.0 | 0.0 | 0.00 | 0.00 | 0.00 | 73 | 1020.8 |
| 20260506104517 | 29 | 347 | 0.0 | 2.0 | 0.00 | 0.00 | 0.00 | 73 | 1020.8 |
| 20260506103025 | 29 | 348 | 1.0 | 3.0 | 0.00 | 0.00 | 0.00 | 73 | 1020.9 |
| 20260506101516 | 29 | 350 | 0.0 | 0.0 | 0.00 | 0.00 | 0.00 | 72 | 1020.9 |
| 20260506100016 | 29 | 327 | 0.0 | 3.0 | 0.00 | 0.00 | 0.00 | 72 | 1020.9 |
| 20260506094516 | 29 | 12 | 2.0 | 4.0 | 0.00 | 0.00 | 0.00 | 72 | 1020.9 |